sensor_id;sensor_type;location;lat;lon;timestamp;P1;durP1;ratioP1;P2;durP2;ratioP2
4407;SDS011;2217;48.460;7.934;2022-10-30T01:44:26;2.80;;;1.00;;
4407;SDS011;2217;48.460;7.934;2022-10-30T01:47:02;2.80;;;0.90;;
4407;SDS011;2217;48.460;7.934;2022-10-30T01:59:58;2.80;;;0.90;;
4407;SDS011;2217;48.460;7.934;2022-10-30T02:02:26;2.77;;;1.00;;
4407;SDS011;2217;48.460;7.934;2022-10-30T02:04:57;2.70;;;0.80;;
4407;SDS011;2217;48.460;7.934;2022-10-30T02:07:26;2.70;;;0.90;;
4407;SDS011;2217;48.460;7.934;2022-10-30T02:09:55;2.70;;;0.80;;
4407;SDS011;2217;48.460;7.934;2022-10-30T02:12:23;2.70;;;0.90;;
4407;SDS011;2217;48.460;7.934;2022-10-30T02:14:51;2.70;;;0.87;;
4407;SDS011;2217;48.460;7.934;2022-10-30T02:17:28;2.70;;;0.90;;
4407;SDS011;2217;48.460;7.934;2022-10-30T02:22:40;2.70;;;0.90;;
4407;SDS011;2217;48.460;7.934;2022-10-30T02:25:11;2.70;;;0.90;;
4407;SDS011;2217;48.460;7.934;2022-10-30T02:27:53;2.70;;;0.90;;
4407;SDS011;2217;48.460;7.934;2022-10-30T03:48:23;2.70;;;0.90;;
4407;SDS011;2217;48.460;7.934;2022-10-30T03:50:52;2.70;;;0.90;;
4407;SDS011;2217;48.460;7.934;2022-10-30T03:53:20;2.70;;;0.90;;
4407;SDS011;2217;48.460;7.934;2022-10-30T04:37:17;2.70;;;0.83;;
4407;SDS011;2217;48.460;7.934;2022-10-30T04:39:44;2.70;;;0.90;;
4407;SDS011;2217;48.460;7.934;2022-10-30T04:42:12;2.70;;;0.80;;
4407;SDS011;2217;48.460;7.934;2022-10-30T04:44:41;2.77;;;1.00;;
4407;SDS011;2217;48.460;7.934;2022-10-30T04:47:11;2.70;;;0.90;;
4407;SDS011;2217;48.460;7.934;2022-10-30T04:49:41;2.70;;;0.90;;
4407;SDS011;2217;48.460;7.934;2022-10-30T04:52:08;2.70;;;0.90;;
4407;SDS011;2217;48.460;7.934;2022-10-30T04:54:42;2.70;;;0.90;;
4407;SDS011;2217;48.460;7.934;2022-10-30T04:57:09;2.70;;;0.90;;
4407;SDS011;2217;48.460;7.934;2022-10-30T04:59:39;2.70;;;1.00;;
4407;SDS011;2217;48.460;7.934;2022-10-30T05:02:06;2.70;;;0.90;;
4407;SDS011;2217;48.460;7.934;2022-10-30T05:04:45;2.67;;;0.90;;
4407;SDS011;2217;48.460;7.934;2022-10-30T05:07:12;2.70;;;0.90;;
4407;SDS011;2217;48.460;7.934;2022-10-30T05:09:46;2.70;;;0.90;;
4407;SDS011;2217;48.460;7.934;2022-10-30T05:12:16;2.73;;;1.00;;
4407;SDS011;2217;48.460;7.934;2022-10-30T05:14:44;2.63;;;0.80;;
4407;SDS011;2217;48.460;7.934;2022-10-30T05:17:12;2.70;;;0.90;;
4407;SDS011;2217;48.460;7.934;2022-10-30T05:19:39;2.70;;;0.90;;
4407;SDS011;2217;48.460;7.934;2022-10-30T05:22:12;2.70;;;0.80;;
4407;SDS011;2217;48.460;7.934;2022-10-30T05:24:39;2.70;;;0.90;;
4407;SDS011;2217;48.460;7.934;2022-10-30T05:27:08;2.70;;;0.90;;
4407;SDS011;2217;48.460;7.934;2022-10-30T05:29:41;2.70;;;0.90;;
4407;SDS011;2217;48.460;7.934;2022-10-30T05:32:11;2.70;;;0.80;;
4407;SDS011;2217;48.460;7.934;2022-10-30T05:34:42;2.70;;;0.90;;
4407;SDS011;2217;48.460;7.934;2022-10-30T05:37:10;2.70;;;0.90;;
4407;SDS011;2217;48.460;7.934;2022-10-30T05:39:43;2.70;;;0.90;;
4407;SDS011;2217;48.460;7.934;2022-10-30T05:42:11;2.70;;;0.90;;
4407;SDS011;2217;48.460;7.934;2022-10-30T05:44:38;2.70;;;0.90;;
4407;SDS011;2217;48.460;7.934;2022-10-30T05:47:06;2.70;;;0.90;;
4407;SDS011;2217;48.460;7.934;2022-10-30T05:49:33;2.70;;;0.90;;
4407;SDS011;2217;48.460;7.934;2022-10-30T05:52:00;2.70;;;0.90;;
4407;SDS011;2217;48.460;7.934;2022-10-30T05:54:27;2.70;;;0.90;;
4407;SDS011;2217;48.460;7.934;2022-10-30T05:56:55;2.70;;;0.90;;
4407;SDS011;2217;48.460;7.934;2022-10-30T05:59:24;2.67;;;0.80;;
4407;SDS011;2217;48.460;7.934;2022-10-30T06:01:51;2.70;;;0.90;;
4407;SDS011;2217;48.460;7.934;2022-10-30T06:04:20;2.77;;;1.00;;
4407;SDS011;2217;48.460;7.934;2022-10-30T06:06:47;2.70;;;0.90;;
4407;SDS011;2217;48.460;7.934;2022-10-30T06:09:15;2.67;;;0.80;;
4407;SDS011;2217;48.460;7.934;2022-10-30T06:11:42;2.70;;;0.90;;
4407;SDS011;2217;48.460;7.934;2022-10-30T06:14:09;2.63;;;0.80;;
4407;SDS011;2217;48.460;7.934;2022-10-30T06:16:38;2.70;;;0.93;;
4407;SDS011;2217;48.460;7.934;2022-10-30T06:19:05;2.70;;;0.90;;
4407;SDS011;2217;48.460;7.934;2022-10-30T06:21:32;2.67;;;0.90;;
4407;SDS011;2217;48.460;7.934;2022-10-30T06:23:59;2.70;;;0.90;;
4407;SDS011;2217;48.460;7.934;2022-10-30T06:26:27;2.70;;;0.90;;
4407;SDS011;2217;48.460;7.934;2022-10-30T06:28:54;2.70;;;0.90;;
4407;SDS011;2217;48.460;7.934;2022-10-30T06:31:21;2.70;;;1.00;;
4407;SDS011;2217;48.460;7.934;2022-10-30T06:33:50;2.70;;;0.90;;
4407;SDS011;2217;48.460;7.934;2022-10-30T06:36:17;2.70;;;0.90;;
4407;SDS011;2217;48.460;7.934;2022-10-30T06:38:45;2.70;;;0.90;;
4407;SDS011;2217;48.460;7.934;2022-10-30T06:41:12;2.70;;;0.90;;
4407;SDS011;2217;48.460;7.934;2022-10-30T06:43:39;2.67;;;0.80;;
4407;SDS011;2217;48.460;7.934;2022-10-30T06:46:06;2.70;;;1.00;;
4407;SDS011;2217;48.460;7.934;2022-10-30T06:48:33;2.70;;;0.90;;
4407;SDS011;2217;48.460;7.934;2022-10-30T06:51:02;2.70;;;0.90;;
4407;SDS011;2217;48.460;7.934;2022-10-30T06:53:29;2.70;;;0.90;;
4407;SDS011;2217;48.460;7.934;2022-10-30T06:55:57;2.70;;;0.90;;
4407;SDS011;2217;48.460;7.934;2022-10-30T06:58:24;2.70;;;0.90;;
4407;SDS011;2217;48.460;7.934;2022-10-30T07:00:52;2.70;;;0.90;;
4407;SDS011;2217;48.460;7.934;2022-10-30T07:03:19;2.67;;;0.90;;
4407;SDS011;2217;48.460;7.934;2022-10-30T07:05:46;2.70;;;0.90;;
4407;SDS011;2217;48.460;7.934;2022-10-30T07:08:15;2.70;;;0.80;;
4407;SDS011;2217;48.460;7.934;2022-10-30T07:10:42;2.70;;;0.90;;
4407;SDS011;2217;48.460;7.934;2022-10-30T07:13:10;2.70;;;0.90;;
4407;SDS011;2217;48.460;7.934;2022-10-30T07:15:37;2.70;;;0.90;;
4407;SDS011;2217;48.460;7.934;2022-10-30T07:18:05;2.70;;;0.90;;
4407;SDS011;2217;48.460;7.934;2022-10-30T07:20:32;2.70;;;0.90;;
4407;SDS011;2217;48.460;7.934;2022-10-30T07:23:00;2.70;;;0.80;;
4407;SDS011;2217;48.460;7.934;2022-10-30T07:25:29;2.70;;;0.90;;
4407;SDS011;2217;48.460;7.934;2022-10-30T07:27:56;2.77;;;0.90;;
4407;SDS011;2217;48.460;7.934;2022-10-30T07:30:24;2.70;;;0.90;;
4407;SDS011;2217;48.460;7.934;2022-10-30T07:32:58;2.70;;;0.80;;
4407;SDS011;2217;48.460;7.934;2022-10-30T07:35:27;2.70;;;0.90;;
4407;SDS011;2217;48.460;7.934;2022-10-30T07:37:55;2.70;;;0.90;;
4407;SDS011;2217;48.460;7.934;2022-10-30T07:40:22;2.70;;;0.83;;
4407;SDS011;2217;48.460;7.934;2022-10-30T07:42:55;2.77;;;0.90;;
4407;SDS011;2217;48.460;7.934;2022-10-30T07:45:23;2.73;;;0.90;;
4407;SDS011;2217;48.460;7.934;2022-10-30T07:47:53;2.70;;;0.90;;
4407;SDS011;2217;48.460;7.934;2022-10-30T07:50:20;2.80;;;0.90;;
4407;SDS011;2217;48.460;7.934;2022-10-30T07:52:49;2.70;;;0.80;;
4407;SDS011;2217;48.460;7.934;2022-10-30T07:55:17;2.80;;;0.90;;
4407;SDS011;2217;48.460;7.934;2022-10-30T07:57:46;2.80;;;0.90;;
4407;SDS011;2217;48.460;7.934;2022-10-30T08:00:15;2.73;;;0.90;;
4407;SDS011;2217;48.460;7.934;2022-10-30T08:02:43;2.77;;;0.80;;
4407;SDS011;2217;48.460;7.934;2022-10-30T08:05:10;2.80;;;1.00;;
4407;SDS011;2217;48.460;7.934;2022-10-30T08:07:37;2.73;;;0.90;;
4407;SDS011;2217;48.460;7.934;2022-10-30T08:10:05;2.73;;;0.90;;
4407;SDS011;2217;48.460;7.934;2022-10-30T08:12:33;2.80;;;0.90;;
4407;SDS011;2217;48.460;7.934;2022-10-30T08:15:05;2.80;;;0.90;;
4407;SDS011;2217;48.460;7.934;2022-10-30T08:17:34;2.80;;;0.90;;
4407;SDS011;2217;48.460;7.934;2022-10-30T08:20:07;2.77;;;0.90;;
4407;SDS011;2217;48.460;7.934;2022-10-30T08:22:35;2.80;;;0.80;;
4407;SDS011;2217;48.460;7.934;2022-10-30T08:25:09;2.80;;;0.80;;
4407;SDS011;2217;48.460;7.934;2022-10-30T08:27:36;2.80;;;0.90;;
4407;SDS011;2217;48.460;7.934;2022-10-30T08:30:04;2.80;;;0.80;;
4407;SDS011;2217;48.460;7.934;2022-10-30T08:32:38;2.80;;;0.80;;
4407;SDS011;2217;48.460;7.934;2022-10-30T08:35:06;2.83;;;0.90;;
4407;SDS011;2217;48.460;7.934;2022-10-30T08:37:33;2.80;;;0.90;;
4407;SDS011;2217;48.460;7.934;2022-10-30T08:40:02;2.90;;;0.90;;
4407;SDS011;2217;48.460;7.934;2022-10-30T08:45:01;2.83;;;0.80;;
4407;SDS011;2217;48.460;7.934;2022-10-30T08:47:28;2.90;;;0.90;;
4407;SDS011;2217;48.460;7.934;2022-10-30T08:49:57;2.90;;;0.90;;
4407;SDS011;2217;48.460;7.934;2022-10-30T08:52:24;2.90;;;0.80;;
4407;SDS011;2217;48.460;7.934;2022-10-30T08:54:53;2.87;;;0.80;;
4407;SDS011;2217;48.460;7.934;2022-10-30T08:57:21;2.87;;;0.90;;
4407;SDS011;2217;48.460;7.934;2022-10-30T08:59:48;2.87;;;0.80;;
4407;SDS011;2217;48.460;7.934;2022-10-30T09:02:15;2.90;;;0.90;;
4407;SDS011;2217;48.460;7.934;2022-10-30T09:04:42;2.90;;;0.90;;
4407;SDS011;2217;48.460;7.934;2022-10-30T09:07:11;2.90;;;0.80;;
4407;SDS011;2217;48.460;7.934;2022-10-30T09:09:38;2.90;;;0.90;;
4407;SDS011;2217;48.460;7.934;2022-10-30T09:12:05;2.90;;;0.80;;
4407;SDS011;2217;48.460;7.934;2022-10-30T09:14:32;2.90;;;0.80;;
4407;SDS011;2217;48.460;7.934;2022-10-30T09:17:00;3.00;;;0.90;;
4407;SDS011;2217;48.460;7.934;2022-10-30T09:19:27;3.00;;;0.90;;
4407;SDS011;2217;48.460;7.934;2022-10-30T09:21:54;3.00;;;0.80;;
4407;SDS011;2217;48.460;7.934;2022-10-30T09:24:22;3.07;;;0.80;;
4407;SDS011;2217;48.460;7.934;2022-10-30T09:26:50;3.10;;;0.80;;
4407;SDS011;2217;48.460;7.934;2022-10-30T09:29:17;3.10;;;0.80;;
4407;SDS011;2217;48.460;7.934;2022-10-30T09:31:44;3.10;;;0.90;;
4407;SDS011;2217;48.460;7.934;2022-10-30T09:34:11;3.20;;;0.80;;
4407;SDS011;2217;48.460;7.934;2022-10-30T09:36:38;3.20;;;0.90;;
4407;SDS011;2217;48.460;7.934;2022-10-30T09:39:07;3.20;;;0.83;;
4407;SDS011;2217;48.460;7.934;2022-10-30T09:41:41;3.30;;;0.90;;
4407;SDS011;2217;48.460;7.934;2022-10-30T09:44:15;3.33;;;0.90;;
4407;SDS011;2217;48.460;7.934;2022-10-30T09:46:50;3.40;;;1.00;;
4407;SDS011;2217;48.460;7.934;2022-10-30T09:49:26;3.40;;;0.90;;
4407;SDS011;2217;48.460;7.934;2022-10-30T09:52:02;3.40;;;0.90;;
4407;SDS011;2217;48.460;7.934;2022-10-30T09:54:34;3.40;;;0.90;;
4407;SDS011;2217;48.460;7.934;2022-10-30T09:57:09;3.50;;;0.80;;
4407;SDS011;2217;48.460;7.934;2022-10-30T09:59:42;3.57;;;0.90;;
4407;SDS011;2217;48.460;7.934;2022-10-30T10:02:15;3.67;;;0.90;;
4407;SDS011;2217;48.460;7.934;2022-10-30T10:04:47;3.77;;;0.80;;
4407;SDS011;2217;48.460;7.934;2022-10-30T10:07:17;3.80;;;0.80;;
4407;SDS011;2217;48.460;7.934;2022-10-30T10:09:48;3.87;;;0.80;;
4407;SDS011;2217;48.460;7.934;2022-10-30T10:12:20;3.90;;;0.80;;
4407;SDS011;2217;48.460;7.934;2022-10-30T10:14:49;3.90;;;0.80;;
4407;SDS011;2217;48.460;7.934;2022-10-30T10:17:18;3.93;;;0.80;;
4407;SDS011;2217;48.460;7.934;2022-10-30T10:19:48;4.00;;;0.80;;
4407;SDS011;2217;48.460;7.934;2022-10-30T10:22:19;3.97;;;0.80;;
4407;SDS011;2217;48.460;7.934;2022-10-30T10:24:48;3.90;;;0.80;;
4407;SDS011;2217;48.460;7.934;2022-10-30T10:27:22;4.00;;;0.80;;
4407;SDS011;2217;48.460;7.934;2022-10-30T10:29:53;4.03;;;0.80;;
4407;SDS011;2217;48.460;7.934;2022-10-30T10:32:31;4.07;;;0.80;;
4407;SDS011;2217;48.460;7.934;2022-10-30T10:35:08;4.10;;;0.80;;
4407;SDS011;2217;48.460;7.934;2022-10-30T10:37:40;4.07;;;0.80;;
4407;SDS011;2217;48.460;7.934;2022-10-30T10:40:14;4.07;;;0.80;;
4407;SDS011;2217;48.460;7.934;2022-10-30T10:42:50;4.20;;;0.80;;
4407;SDS011;2217;48.460;7.934;2022-10-30T10:45:20;4.10;;;0.80;;
4407;SDS011;2217;48.460;7.934;2022-10-30T10:47:55;4.13;;;0.80;;
4407;SDS011;2217;48.460;7.934;2022-10-30T10:50:26;4.17;;;0.80;;
4407;SDS011;2217;48.460;7.934;2022-10-30T10:52:55;4.17;;;0.80;;
4407;SDS011;2217;48.460;7.934;2022-10-30T10:55:25;4.20;;;0.80;;
4407;SDS011;2217;48.460;7.934;2022-10-30T10:57:57;4.20;;;0.90;;
4407;SDS011;2217;48.460;7.934;2022-10-30T11:00:33;4.17;;;0.80;;
4407;SDS011;2217;48.460;7.934;2022-10-30T11:08:25;4.23;;;0.87;;
4407;SDS011;2217;48.460;7.934;2022-10-30T11:10:56;4.23;;;0.80;;
4407;SDS011;2217;48.460;7.934;2022-10-30T11:13:33;4.20;;;0.80;;
4407;SDS011;2217;48.460;7.934;2022-10-30T11:16:17;4.20;;;0.80;;
4407;SDS011;2217;48.460;7.934;2022-10-30T11:19:01;4.23;;;0.83;;
4407;SDS011;2217;48.460;7.934;2022-10-30T11:21:32;4.20;;;0.80;;
4407;SDS011;2217;48.460;7.934;2022-10-30T11:24:08;4.20;;;0.83;;
4407;SDS011;2217;48.460;7.934;2022-10-30T11:26:51;4.20;;;0.90;;
4407;SDS011;2217;48.460;7.934;2022-10-30T11:29:21;4.20;;;0.80;;
4407;SDS011;2217;48.460;7.934;2022-10-30T11:32:01;4.13;;;0.80;;
4407;SDS011;2217;48.460;7.934;2022-10-30T11:34:30;4.13;;;0.80;;
4407;SDS011;2217;48.460;7.934;2022-10-30T11:36:58;4.10;;;0.90;;
4407;SDS011;2217;48.460;7.934;2022-10-30T11:39:26;4.10;;;0.80;;
4407;SDS011;2217;48.460;7.934;2022-10-30T11:42:04;4.10;;;0.80;;
4407;SDS011;2217;48.460;7.934;2022-10-30T11:44:35;4.10;;;0.90;;
4407;SDS011;2217;48.460;7.934;2022-10-30T11:47:03;4.07;;;0.90;;
4407;SDS011;2217;48.460;7.934;2022-10-30T11:49:41;4.10;;;0.90;;
4407;SDS011;2217;48.460;7.934;2022-10-30T11:52:10;4.10;;;0.90;;
4407;SDS011;2217;48.460;7.934;2022-10-30T11:54:42;4.07;;;0.90;;
4407;SDS011;2217;48.460;7.934;2022-10-30T11:57:17;4.03;;;0.80;;
4407;SDS011;2217;48.460;7.934;2022-10-30T11:59:48;4.00;;;0.80;;
4407;SDS011;2217;48.460;7.934;2022-10-30T12:02:24;4.00;;;0.80;;
4407;SDS011;2217;48.460;7.934;2022-10-30T12:05:01;4.00;;;0.80;;
4407;SDS011;2217;48.460;7.934;2022-10-30T12:07:32;3.93;;;0.87;;
4407;SDS011;2217;48.460;7.934;2022-10-30T12:23:10;4.00;;;0.87;;
4407;SDS011;2217;48.460;7.934;2022-10-30T12:36:04;3.90;;;0.80;;
4407;SDS011;2217;48.460;7.934;2022-10-30T12:38:34;3.90;;;0.80;;
4407;SDS011;2217;48.460;7.934;2022-10-30T12:41:04;3.90;;;0.83;;
4407;SDS011;2217;48.460;7.934;2022-10-30T12:43:38;3.90;;;0.80;;
4407;SDS011;2217;48.460;7.934;2022-10-30T12:46:13;3.90;;;0.90;;
4407;SDS011;2217;48.460;7.934;2022-10-30T12:48:43;3.83;;;0.80;;
4407;SDS011;2217;48.460;7.934;2022-10-30T12:51:15;3.90;;;0.90;;
4407;SDS011;2217;48.460;7.934;2022-10-30T12:53:47;3.90;;;0.80;;
4407;SDS011;2217;48.460;7.934;2022-10-30T12:56:16;3.90;;;0.80;;
4407;SDS011;2217;48.460;7.934;2022-10-30T12:58:46;3.90;;;0.80;;
4407;SDS011;2217;48.460;7.934;2022-10-30T13:01:16;3.90;;;0.80;;
4407;SDS011;2217;48.460;7.934;2022-10-30T13:03:49;3.90;;;0.90;;
4407;SDS011;2217;48.460;7.934;2022-10-30T13:06:20;3.87;;;0.80;;
4407;SDS011;2217;48.460;7.934;2022-10-30T13:08:57;3.90;;;0.80;;
4407;SDS011;2217;48.460;7.934;2022-10-30T13:11:27;3.80;;;0.80;;
4407;SDS011;2217;48.460;7.934;2022-10-30T13:13:55;3.90;;;0.80;;
4407;SDS011;2217;48.460;7.934;2022-10-30T13:16:35;3.90;;;0.90;;
4407;SDS011;2217;48.460;7.934;2022-10-30T13:21:52;3.90;;;0.80;;
4407;SDS011;2217;48.460;7.934;2022-10-30T13:24:35;3.90;;;0.80;;
4407;SDS011;2217;48.460;7.934;2022-10-30T13:27:11;3.80;;;0.80;;
4407;SDS011;2217;48.460;7.934;2022-10-30T13:29:42;3.90;;;0.80;;
4407;SDS011;2217;48.460;7.934;2022-10-30T13:35:12;3.90;;;0.80;;
4407;SDS011;2217;48.460;7.934;2022-10-30T13:37:52;3.80;;;0.80;;
4407;SDS011;2217;48.460;7.934;2022-10-30T13:48:17;3.80;;;0.80;;
4407;SDS011;2217;48.460;7.934;2022-10-30T13:50:53;3.80;;;0.87;;
4407;SDS011;2217;48.460;7.934;2022-10-30T13:53:34;3.87;;;0.90;;
4407;SDS011;2217;48.460;7.934;2022-10-30T13:56:03;3.80;;;0.80;;
4407;SDS011;2217;48.460;7.934;2022-10-30T13:58:31;3.80;;;0.80;;
4407;SDS011;2217;48.460;7.934;2022-10-30T14:01:05;3.80;;;0.80;;
4407;SDS011;2217;48.460;7.934;2022-10-30T14:03:40;3.80;;;0.90;;
4407;SDS011;2217;48.460;7.934;2022-10-30T14:06:11;3.70;;;0.80;;
4407;SDS011;2217;48.460;7.934;2022-10-30T14:08:40;3.73;;;0.90;;
4407;SDS011;2217;48.460;7.934;2022-10-30T14:11:09;3.80;;;0.90;;
4407;SDS011;2217;48.460;7.934;2022-10-30T14:13:44;3.73;;;0.80;;
4407;SDS011;2217;48.460;7.934;2022-10-30T14:19:02;3.80;;;0.80;;
4407;SDS011;2217;48.460;7.934;2022-10-30T14:21:36;3.70;;;0.80;;
4407;SDS011;2217;48.460;7.934;2022-10-30T14:24:04;3.70;;;0.80;;
4407;SDS011;2217;48.460;7.934;2022-10-30T14:26:37;3.70;;;0.80;;
4407;SDS011;2217;48.460;7.934;2022-10-30T14:31:46;3.80;;;0.80;;
4407;SDS011;2217;48.460;7.934;2022-10-30T14:36:58;3.70;;;0.80;;
4407;SDS011;2217;48.460;7.934;2022-10-30T14:39:26;3.77;;;0.90;;
4407;SDS011;2217;48.460;7.934;2022-10-30T14:41:57;3.80;;;0.90;;
4407;SDS011;2217;48.460;7.934;2022-10-30T14:44:29;3.77;;;0.90;;
4407;SDS011;2217;48.460;7.934;2022-10-30T14:47:04;3.80;;;0.80;;
4407;SDS011;2217;48.460;7.934;2022-10-30T14:49:43;3.80;;;0.80;;
4407;SDS011;2217;48.460;7.934;2022-10-30T14:55:01;3.80;;;0.90;;
4407;SDS011;2217;48.460;7.934;2022-10-30T14:57:44;3.87;;;0.90;;
4407;SDS011;2217;48.460;7.934;2022-10-30T15:03:02;3.80;;;0.90;;
4407;SDS011;2217;48.460;7.934;2022-10-30T15:11:23;3.80;;;0.90;;
4407;SDS011;2217;48.460;7.934;2022-10-30T15:13:54;3.80;;;0.83;;
4407;SDS011;2217;48.460;7.934;2022-10-30T15:16:22;3.77;;;0.90;;
4407;SDS011;2217;48.460;7.934;2022-10-30T15:18:56;3.80;;;0.90;;
4407;SDS011;2217;48.460;7.934;2022-10-30T15:21:25;3.70;;;0.90;;
4407;SDS011;2217;48.460;7.934;2022-10-30T15:23:58;3.70;;;0.90;;
4407;SDS011;2217;48.460;7.934;2022-10-30T15:26:30;3.70;;;0.90;;
4407;SDS011;2217;48.460;7.934;2022-10-30T15:29:10;3.67;;;0.80;;
4407;SDS011;2217;48.460;7.934;2022-10-30T15:31:42;3.70;;;0.90;;
4407;SDS011;2217;48.460;7.934;2022-10-30T15:34:19;3.60;;;0.80;;
4407;SDS011;2217;48.460;7.934;2022-10-30T15:44:57;3.50;;;0.90;;
4407;SDS011;2217;48.460;7.934;2022-10-30T15:47:32;3.50;;;0.90;;
4407;SDS011;2217;48.460;7.934;2022-10-30T15:50:06;3.50;;;0.90;;
4407;SDS011;2217;48.460;7.934;2022-10-30T15:52:38;3.50;;;0.90;;
4407;SDS011;2217;48.460;7.934;2022-10-30T15:55:08;3.50;;;0.90;;
4407;SDS011;2217;48.460;7.934;2022-10-30T15:57:44;3.40;;;0.90;;
4407;SDS011;2217;48.460;7.934;2022-10-30T16:00:21;3.40;;;0.90;;
4407;SDS011;2217;48.460;7.934;2022-10-30T16:02:57;3.40;;;0.90;;
4407;SDS011;2217;48.460;7.934;2022-10-30T16:05:25;3.40;;;0.90;;
4407;SDS011;2217;48.460;7.934;2022-10-30T16:07:53;3.40;;;0.90;;
4407;SDS011;2217;48.460;7.934;2022-10-30T16:10:22;3.30;;;0.90;;
4407;SDS011;2217;48.460;7.934;2022-10-30T16:12:50;3.30;;;0.90;;
4407;SDS011;2217;48.460;7.934;2022-10-30T16:15:23;3.30;;;0.90;;
4407;SDS011;2217;48.460;7.934;2022-10-30T16:18:02;3.20;;;0.90;;
4407;SDS011;2217;48.460;7.934;2022-10-30T16:20:31;3.20;;;0.90;;
4407;SDS011;2217;48.460;7.934;2022-10-30T16:22:59;3.20;;;0.90;;
4407;SDS011;2217;48.460;7.934;2022-10-30T16:25:26;3.20;;;0.90;;
4407;SDS011;2217;48.460;7.934;2022-10-30T16:27:55;3.10;;;0.80;;
4407;SDS011;2217;48.460;7.934;2022-10-30T16:33:08;3.10;;;0.90;;
4407;SDS011;2217;48.460;7.934;2022-10-30T16:40:53;3.00;;;0.90;;
4407;SDS011;2217;48.460;7.934;2022-10-30T18:22:55;2.87;;;0.90;;
4407;SDS011;2217;48.460;7.934;2022-10-30T18:25:38;2.90;;;0.90;;
4407;SDS011;2217;48.460;7.934;2022-10-30T18:28:29;2.83;;;0.80;;
4407;SDS011;2217;48.460;7.934;2022-10-30T20:09:25;2.73;;;0.90;;
4407;SDS011;2217;48.460;7.934;2022-10-30T20:11:55;2.70;;;0.80;;
4407;SDS011;2217;48.460;7.934;2022-10-30T20:14:22;2.70;;;0.90;;
4407;SDS011;2217;48.460;7.934;2022-10-30T20:16:49;2.70;;;0.90;;
4407;SDS011;2217;48.460;7.934;2022-10-30T20:19:23;2.77;;;0.90;;
4407;SDS011;2217;48.460;7.934;2022-10-30T20:21:52;2.73;;;0.90;;
4407;SDS011;2217;48.460;7.934;2022-10-30T20:24:19;2.77;;;1.00;;
4407;SDS011;2217;48.460;7.934;2022-10-30T20:26:54;2.70;;;0.90;;
4407;SDS011;2217;48.460;7.934;2022-10-30T20:29:22;2.77;;;0.90;;
4407;SDS011;2217;48.460;7.934;2022-10-30T20:31:50;2.73;;;0.90;;
4407;SDS011;2217;48.460;7.934;2022-10-30T20:34:17;2.73;;;0.90;;
4407;SDS011;2217;48.460;7.934;2022-10-30T20:36:44;2.77;;;0.90;;
4407;SDS011;2217;48.460;7.934;2022-10-30T20:39:12;2.77;;;0.80;;
4407;SDS011;2217;48.460;7.934;2022-10-30T20:41:39;2.77;;;0.80;;
4407;SDS011;2217;48.460;7.934;2022-10-30T20:44:09;2.80;;;0.90;;
4407;SDS011;2217;48.460;7.934;2022-10-30T20:46:39;2.77;;;0.90;;
4407;SDS011;2217;48.460;7.934;2022-10-30T20:49:06;2.70;;;0.90;;
4407;SDS011;2217;48.460;7.934;2022-10-30T20:51:33;2.77;;;0.90;;
4407;SDS011;2217;48.460;7.934;2022-10-30T20:54:00;2.80;;;0.90;;
4407;SDS011;2217;48.460;7.934;2022-10-30T20:56:29;2.77;;;0.80;;
4407;SDS011;2217;48.460;7.934;2022-10-30T20:58:56;2.80;;;0.90;;
4407;SDS011;2217;48.460;7.934;2022-10-30T21:01:24;2.80;;;0.90;;
4407;SDS011;2217;48.460;7.934;2022-10-30T21:03:52;2.80;;;0.90;;
4407;SDS011;2217;48.460;7.934;2022-10-30T21:06:19;2.73;;;0.90;;
4407;SDS011;2217;48.460;7.934;2022-10-30T21:08:46;2.77;;;0.90;;
4407;SDS011;2217;48.460;7.934;2022-10-30T21:11:13;2.80;;;0.90;;
4407;SDS011;2217;48.460;7.934;2022-10-30T21:13:40;2.80;;;0.90;;
4407;SDS011;2217;48.460;7.934;2022-10-30T21:16:09;2.80;;;1.00;;
4407;SDS011;2217;48.460;7.934;2022-10-30T21:18:37;2.73;;;0.83;;
4407;SDS011;2217;48.460;7.934;2022-10-30T21:21:05;2.77;;;0.90;;
4407;SDS011;2217;48.460;7.934;2022-10-30T21:23:35;2.80;;;0.87;;
4407;SDS011;2217;48.460;7.934;2022-10-30T21:26:04;2.73;;;0.90;;
4407;SDS011;2217;48.460;7.934;2022-10-30T21:28:31;2.77;;;0.80;;
4407;SDS011;2217;48.460;7.934;2022-10-30T21:31:01;2.80;;;0.90;;
4407;SDS011;2217;48.460;7.934;2022-10-30T21:33:29;2.77;;;0.90;;
4407;SDS011;2217;48.460;7.934;2022-10-30T21:35:59;2.80;;;0.90;;
4407;SDS011;2217;48.460;7.934;2022-10-30T21:38:28;2.80;;;1.00;;
4407;SDS011;2217;48.460;7.934;2022-10-30T21:40:57;2.77;;;0.90;;
4407;SDS011;2217;48.460;7.934;2022-10-30T21:43:24;2.80;;;0.90;;
4407;SDS011;2217;48.460;7.934;2022-10-30T21:45:52;2.80;;;1.00;;
4407;SDS011;2217;48.460;7.934;2022-10-30T21:48:19;2.80;;;0.90;;
4407;SDS011;2217;48.460;7.934;2022-10-30T21:50:46;2.73;;;0.80;;
4407;SDS011;2217;48.460;7.934;2022-10-30T21:53:15;2.80;;;0.90;;
4407;SDS011;2217;48.460;7.934;2022-10-30T21:55:42;2.80;;;0.90;;
4407;SDS011;2217;48.460;7.934;2022-10-30T21:58:09;2.80;;;0.90;;
4407;SDS011;2217;48.460;7.934;2022-10-30T22:00:36;2.77;;;0.90;;
4407;SDS011;2217;48.460;7.934;2022-10-30T22:03:04;2.77;;;0.90;;
4407;SDS011;2217;48.460;7.934;2022-10-30T22:05:31;2.77;;;0.90;;
4407;SDS011;2217;48.460;7.934;2022-10-30T22:07:58;2.80;;;1.00;;
4407;SDS011;2217;48.460;7.934;2022-10-30T22:10:26;2.77;;;0.90;;
4407;SDS011;2217;48.460;7.934;2022-10-30T22:12:53;2.73;;;0.90;;
4407;SDS011;2217;48.460;7.934;2022-10-30T22:15:20;2.80;;;1.00;;
4407;SDS011;2217;48.460;7.934;2022-10-30T22:17:48;2.80;;;1.00;;
4407;SDS011;2217;48.460;7.934;2022-10-30T22:20:15;2.70;;;0.90;;
4407;SDS011;2217;48.460;7.934;2022-10-30T22:22:42;2.70;;;0.80;;
4407;SDS011;2217;48.460;7.934;2022-10-30T22:25:10;2.77;;;1.00;;
4407;SDS011;2217;48.460;7.934;2022-10-30T22:27:38;2.73;;;0.90;;
4407;SDS011;2217;48.460;7.934;2022-10-30T22:30:05;2.70;;;0.90;;
4407;SDS011;2217;48.460;7.934;2022-10-30T22:32:33;2.70;;;1.00;;
4407;SDS011;2217;48.460;7.934;2022-10-30T22:35:00;2.70;;;0.90;;
4407;SDS011;2217;48.460;7.934;2022-10-30T22:37:27;2.70;;;0.90;;
4407;SDS011;2217;48.460;7.934;2022-10-30T22:39:54;2.70;;;0.90;;
4407;SDS011;2217;48.460;7.934;2022-10-30T22:42:22;2.70;;;1.00;;
4407;SDS011;2217;48.460;7.934;2022-10-30T22:44:51;2.70;;;1.00;;
4407;SDS011;2217;48.460;7.934;2022-10-30T22:47:18;2.70;;;0.80;;
4407;SDS011;2217;48.460;7.934;2022-10-30T22:49:45;2.70;;;0.87;;
4407;SDS011;2217;48.460;7.934;2022-10-30T22:52:12;2.67;;;0.90;;
4407;SDS011;2217;48.460;7.934;2022-10-30T22:54:40;2.67;;;0.80;;
4407;SDS011;2217;48.460;7.934;2022-10-30T22:57:07;2.70;;;0.90;;
4407;SDS011;2217;48.460;7.934;2022-10-30T22:59:34;2.67;;;0.87;;
4407;SDS011;2217;48.460;7.934;2022-10-30T23:02:02;2.70;;;0.90;;
4407;SDS011;2217;48.460;7.934;2022-10-30T23:04:29;2.70;;;0.90;;
4407;SDS011;2217;48.460;7.934;2022-10-30T23:06:57;2.70;;;1.00;;
4407;SDS011;2217;48.460;7.934;2022-10-30T23:09:24;2.70;;;0.80;;
4407;SDS011;2217;48.460;7.934;2022-10-30T23:11:51;2.67;;;0.90;;
4407;SDS011;2217;48.460;7.934;2022-10-30T23:14:18;2.67;;;0.90;;
4407;SDS011;2217;48.460;7.934;2022-10-30T23:16:45;2.70;;;0.90;;
4407;SDS011;2217;48.460;7.934;2022-10-30T23:19:14;2.70;;;0.90;;
4407;SDS011;2217;48.460;7.934;2022-10-30T23:21:41;2.70;;;1.00;;
4407;SDS011;2217;48.460;7.934;2022-10-30T23:24:08;2.63;;;0.80;;
4407;SDS011;2217;48.460;7.934;2022-10-30T23:26:35;2.70;;;0.90;;
4407;SDS011;2217;48.460;7.934;2022-10-30T23:29:03;2.70;;;0.90;;
4407;SDS011;2217;48.460;7.934;2022-10-30T23:31:31;2.70;;;0.90;;
4407;SDS011;2217;48.460;7.934;2022-10-30T23:33:59;2.70;;;0.90;;
4407;SDS011;2217;48.460;7.934;2022-10-30T23:36:28;2.70;;;0.90;;
4407;SDS011;2217;48.460;7.934;2022-10-30T23:38:55;2.70;;;0.90;;
4407;SDS011;2217;48.460;7.934;2022-10-30T23:41:23;2.67;;;0.83;;
4407;SDS011;2217;48.460;7.934;2022-10-30T23:43:51;2.70;;;0.90;;
4407;SDS011;2217;48.460;7.934;2022-10-30T23:46:19;2.70;;;0.90;;
4407;SDS011;2217;48.460;7.934;2022-10-30T23:48:46;2.70;;;0.90;;
4407;SDS011;2217;48.460;7.934;2022-10-30T23:51:14;2.70;;;0.90;;
4407;SDS011;2217;48.460;7.934;2022-10-30T23:53:43;2.70;;;0.90;;
4407;SDS011;2217;48.460;7.934;2022-10-30T23:56:10;2.70;;;0.80;;
4407;SDS011;2217;48.460;7.934;2022-10-30T23:58:38;2.70;;;0.90;;
